createdAt,value
2018-03-23T00:04:05.000Z,46.1
2018-03-23T00:14:05.000Z,45.7
2018-03-23T00:24:06.000Z,45.6
2018-03-23T00:34:05.000Z,45
2018-03-23T00:44:05.000Z,45
2018-03-23T00:54:05.000Z,45
2018-03-23T01:04:05.000Z,45.3
2018-03-23T01:14:05.000Z,45.2
2018-03-23T01:24:05.000Z,45.2
2018-03-23T01:34:05.000Z,45.2
2018-03-23T01:44:05.000Z,45.6
2018-03-23T01:54:05.000Z,45.6
2018-03-23T02:04:05.000Z,45.5
2018-03-23T02:14:05.000Z,45.7
2018-03-23T02:24:05.000Z,45
2018-03-23T02:34:05.000Z,44.8
2018-03-23T02:44:05.000Z,44.5
2018-03-23T02:54:05.000Z,44.1
2018-03-23T03:04:05.000Z,43.9
2018-03-23T03:14:05.000Z,43.8
2018-03-23T03:24:05.000Z,43.7
2018-03-23T03:34:05.000Z,43.7
2018-03-23T03:44:05.000Z,43.9
2018-03-23T03:54:05.000Z,43.8
2018-03-23T04:04:05.000Z,43.8
2018-03-23T04:14:05.000Z,44.1
2018-03-23T04:24:05.000Z,43.9
2018-03-23T04:34:05.000Z,44
2018-03-23T04:44:05.000Z,44.1
2018-03-23T04:54:05.000Z,44.4
2018-03-23T05:04:05.000Z,44.6
2018-03-23T05:14:05.000Z,44.8
2018-03-23T05:24:05.000Z,45.3
2018-03-23T05:34:05.000Z,45.8
2018-03-23T05:44:05.000Z,45.9
2018-03-23T05:54:05.000Z,45.8
2018-03-23T06:04:05.000Z,45.9
2018-03-23T06:14:06.000Z,46.2
2018-03-23T06:24:06.000Z,46.5
2018-03-23T06:34:06.000Z,47
2018-03-23T06:44:06.000Z,47.4
2018-03-23T06:54:06.000Z,47.4
2018-03-23T07:04:06.000Z,47.7
2018-03-23T07:14:06.000Z,47.9
2018-03-23T07:24:06.000Z,49.4
2018-03-23T07:34:06.000Z,48.5
2018-03-23T07:44:06.000Z,47.1
2018-03-23T07:54:06.000Z,47.2
2018-03-23T08:04:06.000Z,46.6
2018-03-23T08:14:06.000Z,46.6
2018-03-23T08:24:06.000Z,45.1
2018-03-23T08:34:06.000Z,45.6
2018-03-23T08:44:06.000Z,45.5
2018-03-23T08:54:06.000Z,45.4
2018-03-23T09:04:06.000Z,45.1
2018-03-23T09:14:06.000Z,45.3
2018-03-23T09:24:06.000Z,45.5
2018-03-23T09:34:06.000Z,45.4
2018-03-23T09:44:06.000Z,45.5
2018-03-23T09:54:06.000Z,46.5
2018-03-23T10:04:06.000Z,47.3
2018-03-23T10:14:06.000Z,47.1
2018-03-23T10:24:06.000Z,46.8
2018-03-23T10:34:10.000Z,45.7
2018-03-23T10:44:06.000Z,46
2018-03-23T10:54:06.000Z,47.7
2018-03-23T11:04:06.000Z,48.8
2018-03-23T11:14:06.000Z,50.5
2018-03-23T11:24:06.000Z,52.4
2018-03-23T11:34:06.000Z,52.9
2018-03-23T11:44:06.000Z,54
2018-03-23T11:54:06.000Z,54.4
2018-03-23T12:04:06.000Z,55
2018-03-23T12:14:06.000Z,55.8
2018-03-23T12:24:06.000Z,56.2
2018-03-23T12:34:06.000Z,56.4
2018-03-23T12:44:06.000Z,56.8
2018-03-23T12:54:06.000Z,56.6
2018-03-23T13:04:06.000Z,57.2
2018-03-23T13:14:07.000Z,57.4
2018-03-23T13:24:07.000Z,57.4
2018-03-23T13:34:07.000Z,57.6
2018-03-23T13:44:07.000Z,57.7
2018-03-23T13:54:07.000Z,57.8
2018-03-23T14:04:07.000Z,57.8
2018-03-23T14:14:07.000Z,57.4
2018-03-23T14:24:07.000Z,57.6
2018-03-23T14:34:07.000Z,57.4
2018-03-23T14:44:07.000Z,57.6
2018-03-23T14:54:07.000Z,57.3
2018-03-23T15:14:07.000Z,57.3
2018-03-23T15:24:07.000Z,57.3
2018-03-23T15:34:07.000Z,56.9
2018-03-23T15:44:07.000Z,56.9
2018-03-23T15:54:07.000Z,56.9
2018-03-23T16:04:07.000Z,56.9
2018-03-23T16:14:07.000Z,56.9
2018-03-23T16:24:07.000Z,56.8
2018-03-23T16:34:07.000Z,56.9
2018-03-23T16:44:07.000Z,55.8
2018-03-23T16:54:07.000Z,54.6
2018-03-23T17:04:07.000Z,53.9
2018-03-23T17:14:07.000Z,56
2018-03-23T17:24:07.000Z,57
2018-03-23T17:34:07.000Z,57.2
2018-03-23T17:44:07.000Z,57.2
2018-03-23T17:54:07.000Z,57.4
2018-03-23T18:04:07.000Z,57.2
2018-03-23T18:14:07.000Z,57.5
2018-03-23T18:24:07.000Z,57.5
2018-03-23T18:34:07.000Z,57.3
2018-03-23T18:44:07.000Z,57.1
2018-03-23T18:54:07.000Z,57
2018-03-23T19:04:07.000Z,56.9
2018-03-23T19:14:07.000Z,56.6
2018-03-23T19:24:07.000Z,56.5
2018-03-23T19:34:07.000Z,56.3
2018-03-23T19:44:07.000Z,56.2
2018-03-23T19:54:07.000Z,56
2018-03-23T20:04:07.000Z,55.9
2018-03-23T20:14:08.000Z,54.6
2018-03-23T20:24:08.000Z,53.5
2018-03-23T20:34:08.000Z,52.7
2018-03-23T20:44:08.000Z,52.6
2018-03-23T20:54:08.000Z,55.4
2018-03-23T21:04:08.000Z,54.4
2018-03-23T21:14:08.000Z,55.9
2018-03-23T21:24:08.000Z,56.3
2018-03-23T21:34:08.000Z,56.2
2018-03-23T21:44:08.000Z,55.3
2018-03-23T21:54:08.000Z,54.9
2018-03-23T22:04:08.000Z,54.9
2018-03-23T22:14:08.000Z,55.2
2018-03-23T22:24:08.000Z,40.3
2018-03-23T22:34:08.000Z,37.4
2018-03-23T22:44:09.000Z,37.1
2018-03-23T22:54:08.000Z,36.7
2018-03-23T23:04:08.000Z,36.6
2018-03-23T23:14:08.000Z,36.3
2018-03-23T23:24:08.000Z,36
2018-03-23T23:34:08.000Z,36
2018-03-23T23:44:08.000Z,36
2018-03-23T23:54:08.000Z,36
